MAPA DE AEROPUERTO

INFORMACIÓN METAR y TAF

METAR FOR LEBL
ADDS - METARS form results

(0309 UTC 07 May 2021)
Data provider http://aviationweather.gov/metar/data/
 
METAR text: LEBL 070300Z 30004KT 9999 FEW013 14/12 Q1014 NOSIG
Conditions at: LEBL (BARCELONA AIRPOR, ES) observed 0300 UTC 07 May 2021
Temperature: 14.0°C (57°F)
Dewpoint: 12.0°C (54°F) [RH = 88%]
Pressure (altimeter): 29.94 inches Hg (1014.0 mb)
Winds: from the WNW (300 degrees) at 5 MPH (4 knots; 2.1 m/s)
Visibility: 6 or more miles (10+ km)
Ceiling: at least 12,000 feet AGL
Clouds: few clouds at 1300 feet AGL
Weather: no significant weather observed at this time

METAR text: LEBL 070230Z 31004KT 9999 FEW013 15/12 Q1014 NOSIG
Conditions at: LEBL (BARCELONA AIRPOR, ES) observed 0230 UTC 07 May 2021
Temperature: 15.0°C (59°F)
Dewpoint: 12.0°C (54°F) [RH = 82%]
Pressure (altimeter): 29.94 inches Hg (1014.0 mb)
Winds: from the NW (310 degrees) at 5 MPH (4 knots; 2.1 m/s)
Visibility: 6 or more miles (10+ km)
Ceiling: at least 12,000 feet AGL
Clouds: few clouds at 1300 feet AGL
Weather: no significant weather observed at this time

Forecast for: LEBL (BARCELONA AIRPOR, ES)
Text: TAF LEBL 062300Z 0700/0724 33006KT 9999 FEW015 TX20/0712Z TN13/0706Z
Forecast period: 0000 to 0600 UTC 07 May 2021
Forecast type: FROM: standard forecast or significant change
Winds: from the NNW (330 degrees) at 7 MPH (6 knots; 3.1 m/s)
Visibility: 6 or more miles (10+ km)
Ceiling: at least 12,000 feet AGL
Clouds: few clouds at 1500 feet AGL
Weather: no significant weather forecast for this period
Text: PROB30
Forecast period: 0000 to 0700 UTC 07 May 2021
Forecast type: TEMPORARY: The following changes expected for less than half the time period
Visibility: missing
Ceiling: 1200 feet AGL
Clouds: broken clouds at 1200 feet AGL
Weather: no significant weather forecast for this period
Text: TEMPO 0700/0707 BKN012
Forecast period: 0600 to 1800 UTC 07 May 2021
Forecast type: BECOMING: Conditions expected to become as follows by 0800 UTC 07 May 2021
Winds: from the E (90 degrees) at 8 MPH (7 knots; 3.6 m/s)
Visibility: 6 or more miles (10+ km)
Ceiling: at least 12,000 feet AGL
Clouds: few clouds at 1500 feet AGL
Weather: no significant weather forecast for this period
Text: BECMG 0706/0708 09007KT
Forecast period: 1800 UTC 07 May 2021 to 0000 UTC 08 May 2021
Forecast type: BECOMING: Conditions expected to become as follows by 2000 UTC 07 May 2021
Winds: variable direction winds at 3 MPH (3 knots; 1.5 m/s)
Visibility: 6 or more miles (10+ km)
Ceiling: at least 12,000 feet AGL
Clouds: few clouds at 1500 feet AGL
Weather: no significant weather forecast for this period